createdAt,value
2017-11-29T00:01:13.180Z,2.80
2017-11-29T00:03:40.650Z,4.43
2017-11-29T00:06:08.256Z,2.33
2017-11-29T00:08:36.017Z,1.63
2017-11-29T00:11:03.489Z,2.40
2017-11-29T00:13:30.964Z,4.53
2017-11-29T00:15:59.197Z,1.53
2017-11-29T00:18:26.686Z,1.67
2017-11-29T00:20:54.816Z,2.10
2017-11-29T00:23:22.288Z,1.87
2017-11-29T00:25:49.773Z,2.60
2017-11-29T00:28:17.243Z,5.17
2017-11-29T00:30:45.489Z,2.27
2017-11-29T00:33:12.951Z,3.27
2017-11-29T00:35:40.433Z,2.60
2017-11-29T00:38:08.669Z,2.30
2017-11-29T00:40:36.132Z,1.00
2017-11-29T00:43:03.617Z,1.30
2017-11-29T00:45:31.092Z,1.53
2017-11-29T00:47:59.521Z,1.30
2017-11-29T00:50:26.991Z,1.60
2017-11-29T00:52:54.485Z,2.47
2017-11-29T00:55:22.719Z,1.60
2017-11-29T00:57:50.188Z,1.93
2017-11-29T01:00:17.665Z,1.80
2017-11-29T01:02:45.927Z,2.50
2017-11-29T01:05:13.408Z,2.20
2017-11-29T01:07:41.641Z,1.50
2017-11-29T01:10:09.137Z,2.00
2017-11-29T01:12:37.368Z,1.97
2017-11-29T01:15:04.845Z,2.20
2017-11-29T01:17:32.328Z,1.40
2017-11-29T01:20:00.581Z,1.47
2017-11-29T01:22:28.058Z,1.97
2017-11-29T01:24:55.527Z,2.03
2017-11-29T01:27:23.785Z,2.50
2017-11-29T01:29:51.266Z,1.83
2017-11-29T01:32:19.504Z,1.90
2017-11-29T01:34:47.304Z,1.87
2017-11-29T01:37:15.549Z,2.20
2017-11-29T01:39:43.048Z,1.90
2017-11-29T01:42:10.605Z,1.40
2017-11-29T01:44:38.860Z,1.13
2017-11-29T01:47:06.323Z,1.37
2017-11-29T01:49:34.565Z,1.20
2017-11-29T01:52:02.051Z,1.87
2017-11-29T01:54:29.544Z,2.50
2017-11-29T01:56:57.034Z,1.33
2017-11-29T01:59:24.504Z,1.63
2017-11-29T02:01:51.988Z,1.90
2017-11-29T02:04:20.226Z,2.20
2017-11-29T02:06:47.724Z,2.50
2017-11-29T02:09:15.993Z,1.80
2017-11-29T02:11:43.461Z,2.90
2017-11-29T02:14:11.734Z,1.70
2017-11-29T02:16:39.196Z,4.40
2017-11-29T02:19:07.482Z,2.17
2017-11-29T02:21:35.723Z,3.07
2017-11-29T02:24:03.189Z,2.63
2017-11-29T02:26:30.767Z,2.60
2017-11-29T02:28:59.042Z,3.00
2017-11-29T02:31:27.315Z,3.30
2017-11-29T02:33:55.560Z,2.87
2017-11-29T02:36:23.054Z,3.73
2017-11-29T02:38:51.291Z,3.47
2017-11-29T02:41:30.821Z,3.23
2017-11-29T02:43:58.293Z,3.60
2017-11-29T02:46:25.762Z,4.70
2017-11-29T02:48:53.248Z,4.60
2017-11-29T02:51:21.510Z,3.87
2017-11-29T02:53:48.994Z,5.37
2017-11-29T02:56:17.227Z,5.50
2017-11-29T02:58:44.716Z,5.77
2017-11-29T03:01:12.953Z,6.10
2017-11-29T03:03:40.426Z,6.40
2017-11-29T03:06:07.920Z,6.20
2017-11-29T03:08:36.183Z,5.30
2017-11-29T03:11:04.489Z,6.10
2017-11-29T03:13:31.962Z,7.83
2017-11-29T10:29:32.313Z,6.30
2017-11-29T10:31:59.792Z,7.60
2017-11-29T10:34:28.977Z,6.57
2017-11-29T10:36:56.606Z,7.40
2017-11-29T10:39:24.081Z,7.90
2017-11-29T10:41:51.561Z,11.27
2017-11-29T10:44:19.837Z,6.17
2017-11-29T10:46:47.363Z,8.00
2017-11-29T10:49:14.856Z,6.40
2017-11-29T10:51:42.319Z,6.07
2017-11-29T10:54:09.832Z,7.00
2017-11-29T10:56:37.310Z,6.93
2017-11-29T10:59:04.779Z,7.43
2017-11-29T11:01:32.272Z,11.77
2017-11-29T11:04:03.609Z,12.57
2017-11-29T11:06:31.117Z,8.47
2017-11-29T11:08:58.584Z,6.10
2017-11-29T11:11:26.088Z,8.03
2017-11-29T11:13:54.753Z,6.00
2017-11-29T11:16:22.985Z,6.47
2017-11-29T11:18:50.492Z,9.90
2017-11-29T11:21:17.988Z,10.57
2017-11-29T11:23:45.530Z,8.60
2017-11-29T11:26:13.768Z,9.63
2017-11-29T11:28:41.266Z,8.90
2017-11-29T11:31:09.516Z,8.47
2017-11-29T11:33:36.988Z,6.20
2017-11-29T11:36:04.481Z,5.70
2017-11-29T11:38:31.960Z,6.20
2017-11-29T11:43:53.726Z,5.20
2017-11-29T11:46:21.981Z,7.10
2017-11-29T11:48:49.466Z,7.90
2017-11-29T11:51:17.006Z,5.70
2017-11-29T11:53:45.244Z,5.57
2017-11-29T11:56:12.721Z,5.50
2017-11-29T11:58:40.204Z,5.60
2017-11-29T12:01:08.469Z,6.53
2017-11-29T12:03:36.059Z,10.27
2017-11-29T12:06:03.549Z,7.97
2017-11-29T12:08:31.057Z,6.40
2017-11-29T12:10:59.288Z,6.60
2017-11-29T12:13:26.765Z,5.97
2017-11-29T12:15:54.248Z,6.80
2017-11-29T12:18:22.483Z,5.07
2017-11-29T12:20:49.986Z,9.30
2017-11-29T12:23:17.499Z,6.60
2017-11-29T12:25:44.978Z,7.83
2017-11-29T12:28:12.461Z,6.90
2017-11-29T12:30:40.728Z,7.30
2017-11-29T12:33:08.984Z,10.00
2017-11-29T12:35:36.576Z,6.83
2017-11-29T12:38:04.830Z,6.13
2017-11-29T12:40:32.297Z,8.37
2017-11-29T12:42:59.860Z,7.17
2017-11-29T12:45:28.097Z,6.60
2017-11-29T12:47:55.583Z,7.43
2017-11-29T12:50:34.977Z,8.03
2017-11-29T12:53:02.495Z,13.03
2017-11-29T12:55:30.729Z,7.60
2017-11-29T12:57:58.237Z,6.07
2017-11-29T13:00:26.478Z,7.30
2017-11-29T13:02:53.956Z,10.10
2017-11-29T13:05:21.444Z,9.30
2017-11-29T13:07:48.962Z,28.17
2017-11-29T13:10:16.444Z,7.30
2017-11-29T13:12:44.681Z,7.37
2017-11-29T13:15:12.172Z,14.97
2017-11-29T13:17:40.425Z,6.40
2017-11-29T13:20:07.947Z,7.27
2017-11-29T13:22:35.413Z,7.03
2017-11-29T13:25:02.889Z,10.80
2017-11-29T13:27:30.404Z,7.83
2017-11-29T13:29:57.890Z,8.80
2017-11-29T13:32:25.373Z,8.90
2017-11-29T13:34:52.840Z,7.87
2017-11-29T13:37:20.332Z,7.90
2017-11-29T13:39:47.805Z,8.37
2017-11-29T13:42:15.368Z,9.33
2017-11-29T13:44:42.833Z,6.43
2017-11-29T13:47:10.301Z,7.50
2017-11-29T13:49:37.785Z,8.33
2017-11-29T13:52:05.256Z,7.57
2017-11-29T13:54:32.736Z,9.70
2017-11-29T13:57:00.968Z,9.20
2017-11-29T13:59:28.468Z,8.90
2017-11-29T14:01:56.717Z,10.33
2017-11-29T14:04:24.213Z,8.30
2017-11-29T14:06:51.702Z,6.70
2017-11-29T14:09:19.169Z,10.30
2017-11-29T14:11:46.656Z,7.57
2017-11-29T14:14:14.124Z,12.60
2017-11-29T14:16:42.392Z,7.53
2017-11-29T14:19:09.867Z,7.43
2017-11-29T14:21:38.117Z,34.87
2017-11-29T14:24:05.584Z,25.20
2017-11-29T14:26:33.121Z,12.90
2017-11-29T14:29:00.589Z,50.07
2017-11-29T14:31:29.564Z,15.30
2017-11-29T14:33:57.070Z,6.90
2017-11-29T14:36:25.301Z,5.97
2017-11-29T14:38:52.789Z,7.17
2017-11-29T14:41:20.255Z,21.07
2017-11-29T14:43:48.553Z,14.17
2017-11-29T14:46:16.088Z,6.37
2017-11-29T14:48:44.344Z,25.40
2017-11-29T14:51:11.820Z,6.83
2017-11-29T14:53:41.011Z,7.40
2017-11-29T14:56:08.497Z,7.67
2017-11-29T14:58:35.979Z,9.10
2017-11-29T15:01:04.251Z,9.53
2017-11-29T15:03:31.734Z,11.30
2017-11-29T15:05:59.239Z,8.80
2017-11-29T15:08:27.501Z,20.73
2017-11-29T15:10:54.972Z,8.40
2017-11-29T15:13:23.240Z,8.37
2017-11-29T15:15:51.500Z,9.67
2017-11-29T15:18:18.985Z,9.67
2017-11-29T15:20:47.293Z,10.93
2017-11-29T15:23:14.783Z,8.13
2017-11-29T15:25:43.128Z,11.57
2017-11-29T15:28:10.595Z,8.13
2017-11-29T15:30:38.089Z,60.57
2017-11-29T15:33:05.572Z,9.90
2017-11-29T15:35:33.823Z,8.33
2017-11-29T15:38:01.295Z,6.50
2017-11-29T15:40:29.565Z,6.63
2017-11-29T15:44:49.768Z,8.10
2017-11-29T15:47:17.256Z,8.63
2017-11-29T15:49:44.737Z,7.33
2017-11-29T15:52:12.220Z,7.00
2017-11-29T15:54:39.692Z,9.73
2017-11-29T15:57:07.184Z,7.10
2017-11-29T15:59:35.448Z,17.00
2017-11-29T16:02:03.693Z,7.30
2017-11-29T16:04:31.499Z,8.10
2017-11-29T16:06:59.004Z,7.17
2017-11-29T16:09:26.489Z,8.17
2017-11-29T16:11:54.083Z,9.70
2017-11-29T16:14:21.820Z,14.67
2017-11-29T16:16:49.300Z,8.97
2017-11-29T16:19:17.541Z,8.70
2017-11-29T16:21:45.029Z,11.27
2017-11-29T16:24:13.261Z,8.87
2017-11-29T16:26:40.791Z,7.57
2017-11-29T16:29:08.274Z,15.60
2017-11-29T16:31:35.756Z,14.77
2017-11-29T16:34:03.273Z,6.87
2017-11-29T16:36:30.746Z,36.57
2017-11-29T16:38:58.255Z,8.23
2017-11-29T16:41:26.623Z,6.77
2017-11-29T16:43:54.868Z,7.60
2017-11-29T16:46:22.344Z,7.70
2017-11-29T16:48:49.860Z,13.47
2017-11-29T16:51:17.325Z,9.00
2017-11-29T16:53:44.831Z,9.80
2017-11-29T16:56:12.308Z,10.23
2017-11-29T16:58:40.551Z,13.73
2017-11-29T17:01:08.045Z,10.07
2017-11-29T17:03:36.297Z,14.13
2017-11-29T17:06:04.609Z,19.60
2017-11-29T17:08:32.148Z,13.97
2017-11-29T17:11:00.424Z,14.57
2017-11-29T17:13:28.692Z,16.03
2017-11-29T17:15:56.189Z,13.57
2017-11-29T17:18:23.692Z,12.30
2017-11-29T17:20:51.176Z,19.40
2017-11-29T17:23:19.681Z,12.10
2017-11-29T17:25:47.160Z,11.83
2017-11-29T17:28:14.652Z,11.60
2017-11-29T17:30:42.132Z,12.23
2017-11-29T17:33:10.390Z,11.97
2017-11-29T17:35:37.896Z,12.87
2017-11-29T17:38:05.426Z,12.53
2017-11-29T17:40:33.698Z,12.33
2017-11-29T17:43:01.953Z,12.47
2017-11-29T17:45:29.580Z,12.37
2017-11-29T17:47:57.080Z,27.87
2017-11-29T17:50:24.597Z,10.97
2017-11-29T17:52:52.152Z,11.07
2017-11-29T17:55:19.641Z,15.17
2017-11-29T17:57:47.890Z,13.17
2017-11-29T18:00:15.405Z,12.80
2017-11-29T18:02:42.879Z,11.90
2017-11-29T18:05:11.120Z,12.73
2017-11-29T18:07:38.604Z,15.47
2017-11-29T18:10:06.851Z,13.70
2017-11-29T18:12:34.353Z,11.67
2017-11-29T18:15:02.601Z,12.83
2017-11-29T18:17:30.875Z,120.00
2017-11-29T18:20:00.181Z,14.53
2017-11-29T18:22:27.719Z,12.13
2017-11-29T18:24:55.212Z,11.30
2017-11-29T18:27:23.457Z,12.07
2017-11-29T18:29:50.945Z,10.57
2017-11-29T18:32:19.203Z,13.80
2017-11-29T18:34:46.797Z,11.80
2017-11-29T18:37:15.046Z,10.37
2017-11-29T18:39:42.541Z,10.90
2017-11-29T18:42:10.025Z,10.60
2017-11-29T18:44:37.515Z,40.73
2017-11-29T18:47:05.009Z,10.10
2017-11-29T18:49:32.505Z,9.80
2017-11-29T18:52:00.001Z,9.87
2017-11-29T18:54:28.255Z,9.67
2017-11-29T18:56:55.753Z,10.60
2017-11-29T18:59:23.997Z,12.93
2017-11-29T19:01:51.481Z,15.07
2017-11-29T19:04:19.747Z,11.80
2017-11-29T19:06:47.981Z,9.03
2017-11-29T19:09:15.475Z,13.50
2017-11-29T19:11:42.949Z,9.37
2017-11-29T19:14:11.203Z,10.00
2017-11-29T19:16:38.685Z,11.97
2017-11-29T19:19:07.228Z,10.50
2017-11-29T19:21:34.697Z,9.03
2017-11-29T19:24:02.284Z,12.50
2017-11-29T19:26:30.532Z,9.63
2017-11-29T19:28:58.015Z,9.67
2017-11-29T19:31:26.285Z,11.27
2017-11-29T19:33:53.790Z,12.90
2017-11-29T19:36:21.284Z,10.80
2017-11-29T19:38:48.767Z,11.73
2017-11-29T19:41:17.049Z,10.80
2017-11-29T19:43:45.360Z,11.33
2017-11-29T19:46:12.844Z,12.63
2017-11-29T19:48:40.344Z,12.87
2017-11-29T19:51:07.860Z,12.50
2017-11-29T19:53:35.349Z,11.40
2017-11-29T19:56:02.820Z,25.50
2017-11-29T19:58:31.065Z,11.63
2017-11-29T20:00:58.540Z,14.87
2017-11-29T20:03:26.040Z,14.33
2017-11-29T20:05:53.522Z,14.40
2017-11-29T20:08:21.004Z,13.03
2017-11-29T20:10:48.519Z,13.67
2017-11-29T20:13:16.001Z,13.10
2017-11-29T20:15:43.489Z,14.47
2017-11-29T20:18:11.300Z,17.07
2017-11-29T20:20:38.825Z,17.17
2017-11-29T20:23:07.086Z,15.60
2017-11-29T20:25:34.925Z,15.77
2017-11-29T20:28:02.476Z,17.83
2017-11-29T20:30:30.105Z,20.80
2017-11-29T20:32:57.596Z,18.80
2017-11-29T20:35:25.205Z,17.30
2017-11-29T20:37:54.506Z,17.70
2017-11-29T20:40:22.842Z,18.50
2017-11-29T20:42:50.400Z,21.20
2017-11-29T20:45:17.876Z,18.90
2017-11-29T20:47:45.413Z,20.77
2017-11-29T20:50:13.037Z,20.43
2017-11-29T20:52:53.129Z,24.73
2017-11-29T20:55:21.009Z,23.63
2017-11-29T20:57:48.868Z,22.97
2017-11-29T21:00:16.369Z,23.70
2017-11-29T21:02:44.186Z,77.87
2017-11-29T21:05:11.963Z,30.67
2017-11-29T21:07:41.474Z,24.37
2017-11-29T21:10:09.028Z,23.83
2017-11-29T21:12:36.563Z,20.63
2017-11-29T21:15:05.280Z,24.00
2017-11-29T21:17:33.345Z,23.97
2017-11-29T21:20:00.887Z,23.00
2017-11-29T21:22:28.873Z,27.33
2017-11-29T21:24:56.670Z,27.33
2017-11-29T21:27:24.410Z,27.30
2017-11-29T21:29:53.668Z,23.90
2017-11-29T21:32:21.327Z,27.10
2017-11-29T21:34:48.827Z,22.53
2017-11-29T21:37:16.432Z,33.93
2017-11-29T21:39:44.847Z,25.27
2017-11-29T21:42:12.635Z,27.83
2017-11-29T21:44:40.224Z,26.13
2017-11-29T21:47:07.785Z,31.80
2017-11-29T21:49:36.879Z,40.10
2017-11-29T21:52:04.364Z,36.03
2017-11-29T21:54:31.865Z,36.53
2017-11-29T21:56:59.742Z,38.57
2017-11-29T21:59:27.243Z,38.40
2017-11-29T22:01:55.973Z,39.13
2017-11-29T22:04:23.680Z,37.50
2017-11-29T22:06:52.037Z,41.67
2017-11-29T22:09:19.541Z,37.10
2017-11-29T22:11:47.990Z,36.00
2017-11-29T22:14:15.530Z,37.67
2017-11-29T22:16:43.024Z,36.43
2017-11-29T22:19:11.313Z,33.20
2017-11-29T22:21:38.838Z,40.20
2017-11-29T22:24:06.332Z,32.27
2017-11-29T22:26:35.161Z,43.00
2017-11-29T22:29:02.698Z,31.70
2017-11-29T22:31:30.176Z,37.53
2017-11-29T22:33:57.693Z,36.90
2017-11-29T22:36:25.321Z,41.73
2017-11-29T22:38:52.796Z,34.67
2017-11-29T22:41:20.444Z,38.90
2017-11-29T22:43:48.726Z,36.33
2017-11-29T22:46:16.228Z,35.03
2017-11-29T22:48:43.958Z,41.03
2017-11-29T22:51:12.052Z,40.90
2017-11-29T22:53:39.545Z,37.13
2017-11-29T22:56:07.590Z,42.03
2017-11-29T22:58:36.034Z,36.20
2017-11-29T23:01:03.548Z,41.23
2017-11-29T23:03:31.129Z,33.87
2017-11-29T23:05:58.869Z,33.40
2017-11-29T23:10:18.016Z,36.37
2017-11-29T23:12:46.626Z,36.40
2017-11-29T23:15:14.535Z,35.33
2017-11-29T23:17:42.013Z,39.23
2017-11-29T23:20:09.862Z,34.77
2017-11-29T23:22:37.713Z,37.63
2017-11-29T23:25:05.204Z,36.07
2017-11-29T23:27:32.683Z,38.90
2017-11-29T23:30:00.196Z,41.17
2017-11-29T23:32:27.856Z,42.07
2017-11-29T23:34:55.359Z,41.53
2017-11-29T23:37:23.604Z,44.23
2017-11-29T23:39:51.092Z,40.97
2017-11-29T23:42:19.365Z,42.17
2017-11-29T23:44:47.807Z,37.83
2017-11-29T23:47:15.412Z,41.73
2017-11-29T23:49:43.658Z,39.03
2017-11-29T23:52:11.157Z,40.90
2017-11-29T23:54:38.666Z,37.53
2017-11-29T23:57:06.313Z,42.40
2017-11-29T23:59:33.804Z,42.60
